Time;durP1;ratioP1;P1;durP2;ratioP2;P2;SDS_P1;SDS_P2;PMS_P1;PMS_P2;Temp;Humidity;BMP_temperature;BMP_pressure;BME280_temperature;BME280_humidity;BME280_pressure;Samples;Min_cycle;Max_cycle;Signal;HPM_P1;HPM_P2
2024/01/17 00:00:36;;;;;;;2.17;1.40;;;;;;;-6.86;97.65;99419.47;4235772;28;20328;-66
2024/01/17 00:03:03;;;;;;;1.17;0.87;;;;;;;-6.84;98.53;99419.44;4237915;28;26087;-69
2024/01/17 00:05:30;;;;;;;15.87;4.80;;;;;;;-6.84;98.98;99419.44;4244822;28;20245;-66
2024/01/17 00:07:56;;;;;;;14.67;5.63;;;;;;;-6.82;99.50;99416.72;4241347;28;23084;-65
2024/01/17 00:10:24;;;;;;;17.20;4.93;;;;;;;-6.82;99.98;99407.03;4252984;28;20315;-67
2024/01/17 00:12:50;;;;;;;11.87;5.73;;;;;;;-6.75;100.00;99419.03;4246759;28;20493;-68
2024/01/17 00:15:18;;;;;;;4.03;1.57;;;;;;;-6.68;100.00;99417.00;4236554;28;23974;-66
2024/01/17 00:17:46;;;;;;;18.03;6.43;;;;;;;-6.69;100.00;99407.41;4239571;28;20235;-66
2024/01/17 00:20:13;;;;;;;31.70;10.13;;;;;;;-6.66;100.00;99414.31;4244263;28;20293;-65
2024/01/17 00:22:40;;;;;;;10.00;4.90;;;;;;;-6.61;100.00;99423.72;4244264;28;21680;-70
2024/01/17 00:25:08;;;;;;;21.10;3.70;;;;;;;-6.60;100.00;99414.03;4239808;28;20235;-66
2024/01/17 00:27:37;;;;;;;2.50;1.73;;;;;;;-6.55;100.00;99409.47;4242620;28;22138;-66
2024/01/17 00:30:04;;;;;;;2.33;1.87;;;;;;;-6.53;100.00;99412.88;4256241;28;20225;-68
2024/01/17 00:32:31;;;;;;;7.43;2.63;;;;;;;-6.53;100.00;99415.50;4236248;28;20238;-65
2024/01/17 00:34:58;;;;;;;6.80;2.27;;;;;;;-6.48;100.00;99421.44;4242950;28;20250;-64
2024/01/17 00:37:25;;;;;;;4.33;1.90;;;;;;;-6.37;100.00;99418.34;4247693;28;20234;-64
2024/01/17 00:39:51;;;;;;;5.93;2.47;;;;;;;-6.37;100.00;99415.72;4236172;28;21301;-68
2024/01/17 00:42:18;;;;;;;2.83;0.97;;;;;;;-6.29;100.00;99415.38;4239490;28;21980;-65
2024/01/17 00:44:44;;;;;;;2.40;1.73;;;;;;;-6.27;100.00;99417.03;4244594;28;20235;-68
2024/01/17 00:47:12;;;;;;;2.00;1.90;;;;;;;-6.16;100.00;99411.31;4228264;28;22375;-64
2024/01/17 00:49:39;;;;;;;0.73;0.33;;;;;;;-6.03;100.00;99416.03;4238146;28;20505;-67
2024/01/17 00:52:06;;;;;;;1.87;1.77;;;;;;;-6.05;100.00;99409.06;4237491;28;26374;-65
2024/01/17 00:54:33;;;;;;;10.67;3.50;;;;;;;-6.10;100.00;99421.56;4247577;28;20234;-66
2024/01/17 00:56:59;;;;;;;0.70;0.70;;;;;;;-5.93;100.00;99409.41;4238627;28;20237;-65
2024/01/17 00:59:26;;;;;;;8.93;3.83;;;;;;;-5.96;100.00;99406.91;4235076;28;23152;-65
2024/01/17 01:01:52;;;;;;;8.03;4.03;;;;;;;-6.02;100.00;99412.47;4241660;28;20293;-65
2024/01/17 01:04:19;;;;;;;5.70;2.73;;;;;;;-6.03;100.00;99408.13;4238233;28;20239;-65
2024/01/17 01:06:45;;;;;;;15.63;7.57;;;;;;;-6.13;100.00;99397.16;4234323;28;20234;-66
2024/01/17 01:09:12;;;;;;;6.43;3.00;;;;;;;-6.15;100.00;99399.81;4247327;28;20253;-64
2024/01/17 01:11:41;;;;;;;8.30;3.23;;;;;;;-6.15;100.00;99397.19;4240241;28;20305;-65
2024/01/17 01:14:08;;;;;;;12.03;5.53;;;;;;;-6.14;100.00;99398.06;4225489;28;20753;-69
2024/01/17 01:16:35;;;;;;;37.73;11.83;;;;;;;-6.07;100.00;99392.44;4237749;28;20296;-67
2024/01/17 01:19:04;;;;;;;2.67;2.17;;;;;;;-6.14;100.00;99383.09;4236525;28;20242;-65
2024/01/17 01:21:31;;;;;;;14.80;4.90;;;;;;;-6.11;100.00;99382.97;4241403;28;20304;-66
2024/01/17 01:23:57;;;;;;;2.30;1.70;;;;;;;-6.11;100.00;99382.09;4239323;28;20442;-64
2024/01/17 01:26:24;;;;;;;29.40;11.00;;;;;;;-6.13;100.00;99389.25;4239133;28;20347;-66
2024/01/17 01:28:50;;;;;;;7.20;1.17;;;;;;;-6.06;100.00;99388.03;4232066;28;20518;-64
2024/01/17 01:31:17;;;;;;;26.60;6.97;;;;;;;-6.04;100.00;99386.19;4242950;28;20362;-66
2024/01/17 01:33:43;;;;;;;8.37;2.10;;;;;;;-6.03;100.00;99392.31;4240208;28;22032;-65
2024/01/17 01:36:11;;;;;;;2.77;1.30;;;;;;;-5.92;100.00;99375.06;4232966;28;20412;-66
2024/01/17 01:38:37;;;;;;;15.03;4.33;;;;;;;-5.89;100.00;99384.63;4242100;28;21640;-65
2024/01/17 01:41:04;;;;;;;18.70;7.90;;;;;;;-5.92;100.00;99382.97;4237057;28;23532;-65
2024/01/17 01:43:30;;;;;;;6.30;2.87;;;;;;;-6.05;100.00;99374.78;4244060;28;20235;-67
2024/01/17 01:46:03;;;;;;;2.60;1.37;;;;;;;-5.91;100.00;99383.81;4230914;28;22169;-66
2024/01/17 01:48:31;;;;;;;7.43;3.10;;;;;;;-5.89;100.00;99380.19;4233578;28;20241;-64
2024/01/17 01:50:58;;;;;;;3.50;2.20;;;;;;;-5.91;100.00;99379.44;4241273;28;20232;-65
2024/01/17 01:53:27;;;;;;;0.67;0.67;;;;;;;-5.90;100.00;99381.13;4241006;28;20255;-66
2024/01/17 01:55:54;;;;;;;3.13;2.70;;;;;;;-5.77;100.00;99365.59;4237063;28;20376;-66
2024/01/17 01:58:25;;;;;;;7.43;3.67;;;;;;;-5.83;100.00;99376.44;4235701;28;20231;-67
2024/01/17 02:00:56;;;;;;;6.57;4.00;;;;;;;-5.82;100.00;99369.41;4233447;28;20307;-65
2024/01/17 02:03:25;;;;;;;8.43;2.53;;;;;;;-5.94;100.00;99373.44;4254780;28;20276;-69
2024/01/17 02:05:52;;;;;;;2.93;1.10;;;;;;;-5.85;100.00;99365.09;4239056;28;20264;-64
2024/01/17 02:08:19;;;;;;;14.23;4.40;;;;;;;-5.74;100.00;99364.63;4237693;28;25330;-65
2024/01/17 02:10:46;;;;;;;0.80;0.67;;;;;;;-5.93;100.00;99361.97;4240091;28;21348;-63
2024/01/17 02:13:14;;;;;;;2.83;2.33;;;;;;;-5.77;100.00;99362.97;4245552;28;20660;-64
2024/01/17 02:15:40;;;;;;;1.50;1.13;;;;;;;-5.78;100.00;99361.25;4239716;28;22359;-64
2024/01/17 02:18:07;;;;;;;4.40;1.90;;;;;;;-5.81;100.00;99350.00;4241212;28;20676;-66
2024/01/17 02:20:34;;;;;;;1.33;1.23;;;;;;;-5.82;100.00;99359.69;4244302;28;21039;-63
2024/01/17 02:23:02;;;;;;;32.43;12.50;;;;;;;-5.86;100.00;99352.88;4242106;28;20600;-66
2024/01/17 02:25:29;;;;;;;8.13;2.37;;;;;;;-5.94;100.00;99368.16;4242586;28;26469;-66
2024/01/17 02:27:55;;;;;;;0.57;0.57;;;;;;;-5.88;100.00;99362.63;4245085;28;20234;-66
2024/01/17 02:30:22;;;;;;;5.03;4.73;;;;;;;-5.87;100.00;99359.06;4247880;28;22653;-65
2024/01/17 02:32:49;;;;;;;6.53;4.07;;;;;;;-5.83;100.00;99357.97;4242144;28;20238;-65
2024/01/17 02:35:16;;;;;;;0.50;0.40;;;;;;;-5.86;100.00;99352.00;4242608;28;20312;-65
2024/01/17 02:37:43;;;;;;;0.10;0.10;;;;;;;-5.87;100.00;99351.16;4245738;28;23058;-64
2024/01/17 02:40:10;;;;;;;3.67;1.07;;;;;;;-5.81;100.00;99357.91;4242541;28;22671;-67
2024/01/17 02:42:37;;;;;;;6.10;4.03;;;;;;;-5.76;100.00;99353.28;4241631;28;21568;-65
2024/01/17 02:45:04;;;;;;;0.07;0.07;;;;;;;-5.62;100.00;99345.59;4246172;28;20287;-66
2024/01/17 02:47:30;;;;;;;2.90;1.90;;;;;;;-5.57;100.00;99334.84;4251406;28;20235;-65
2024/01/17 02:49:58;;;;;;;0.50;0.50;;;;;;;-5.75;100.00;99347.94;4244797;28;20322;-66
2024/01/17 02:52:25;;;;;;;5.00;4.37;;;;;;;-5.52;100.00;99342.53;4245391;28;21040;-66
2024/01/17 02:54:51;;;;;;;8.17;2.70;;;;;;;-5.51;100.00;99357.44;4247529;28;20229;-67
2024/01/17 02:57:20;;;;;;;15.83;7.43;;;;;;;-5.46;100.00;99352.78;4245532;28;20238;-65
2024/01/17 02:59:46;;;;;;;8.27;4.23;;;;;;;-5.66;100.00;99337.91;4245004;28;20231;-66
2024/01/17 03:02:13;;;;;;;1.43;0.67;;;;;;;-5.51;100.00;99349.53;4245494;28;20234;-65
2024/01/17 03:04:40;;;;;;;0.40;0.40;;;;;;;-5.60;100.00;99342.88;4246216;28;20225;-68
2024/01/17 03:07:06;;;;;;;0.73;0.67;;;;;;;-5.62;100.00;99340.31;4240234;28;20232;-66
2024/01/17 03:09:33;;;;;;;2.07;1.33;;;;;;;-5.59;100.00;99341.94;4245564;28;20578;-65
2024/01/17 03:12:00;;;;;;;2.07;1.60;;;;;;;-5.49;100.00;99337.09;4244499;28;20292;-66
2024/01/17 03:14:30;;;;;;;2.70;1.17;;;;;;;-5.43;100.00;99331.53;4247743;28;20327;-66
2024/01/17 03:16:58;;;;;;;4.83;1.80;;;;;;;-5.45;100.00;99325.50;4235401;28;20649;-67
2024/01/17 03:19:25;;;;;;;0.40;0.40;;;;;;;-5.49;100.00;99337.09;4243769;28;20304;-66
2024/01/17 03:21:51;;;;;;;6.97;1.93;;;;;;;-5.44;100.00;99327.19;4237420;28;20253;-64
2024/01/17 03:24:18;;;;;;;0.50;0.50;;;;;;;-5.44;100.00;99322.75;4243487;28;21187;-66
2024/01/17 03:26:45;;;;;;;3.87;2.40;;;;;;;-5.38;100.00;99324.25;4247504;28;20230;-66
2024/01/17 03:29:11;;;;;;;7.57;4.03;;;;;;;-5.32;100.00;99325.72;4245122;28;21088;-68
2024/01/17 03:31:38;;;;;;;5.57;2.13;;;;;;;-5.35;100.00;99321.47;4242685;28;20470;-65
2024/01/17 03:34:04;;;;;;;10.93;7.80;;;;;;;-5.47;100.00;99319.41;4248119;28;20279;-65
2024/01/17 03:36:31;;;;;;;1.00;0.50;;;;;;;-5.44;100.00;99327.19;4246658;28;20225;-67
2024/01/17 03:38:57;;;;;;;1.63;1.53;;;;;;;-5.44;100.00;99322.75;4240663;28;20289;-68
2024/01/17 03:41:24;;;;;;;1.47;1.20;;;;;;;-5.37;100.00;99331.25;4249486;28;20419;-66
2024/01/17 03:43:51;;;;;;;2.40;2.20;;;;;;;-5.30;100.00;99329.16;4249476;28;20243;-67
2024/01/17 03:46:17;;;;;;;6.87;3.60;;;;;;;-5.26;100.00;99338.63;4244053;28;20298;-66
2024/01/17 03:48:44;;;;;;;2.03;1.43;;;;;;;-5.23;100.00;99341.13;4235318;28;20238;-66
2024/01/17 03:51:11;;;;;;;1.27;0.67;;;;;;;-5.28;100.00;99340.50;4248484;28;20298;-64
2024/01/17 03:53:37;;;;;;;1.30;1.07;;;;;;;-5.32;100.00;99333.63;4248345;28;20245;-66
2024/01/17 03:56:04;;;;;;;8.47;2.57;;;;;;;-5.39;100.00;99326.94;4247827;28;21478;-66
2024/01/17 03:58:31;;;;;;;13.23;6.40;;;;;;;-5.54;100.00;99337.31;4250884;28;21306;-68
2024/01/17 04:01:01;;;;;;;4.07;1.70;;;;;;;-5.44;100.00;99319.28;4245737;28;20926;-65
2024/01/17 04:03:28;;;;;;;5.10;2.77;;;;;;;-5.49;100.00;99335.31;4246142;28;22311;-67
2024/01/17 04:05:54;;;;;;;3.17;2.07;;;;;;;-5.46;100.00;99327.25;4254432;28;22351;-65
2024/01/17 04:08:21;;;;;;;2.33;1.00;;;;;;;-5.48;100.00;99320.34;4248718;28;20287;-66
2024/01/17 04:10:48;;;;;;;14.10;5.83;;;;;;;-5.46;100.00;99321.13;4240496;28;21883;-65
2024/01/17 04:13:14;;;;;;;0.30;0.30;;;;;;;-5.43;100.00;99335.03;4243050;28;20285;-67
2024/01/17 04:15:42;;;;;;;3.70;2.57;;;;;;;-5.56;100.00;99320.72;4252761;28;20238;-67
2024/01/17 04:18:09;;;;;;;8.40;4.37;;;;;;;-5.40;100.00;99320.84;4238521;28;21436;-65
2024/01/17 04:20:36;;;;;;;20.27;6.13;;;;;;;-5.47;100.00;99322.91;4242112;28;20242;-66
2024/01/17 04:23:06;;;;;;;34.37;11.33;;;;;;;-5.52;100.00;99319.63;4250801;28;20774;-67
2024/01/17 04:25:33;;;;;;;4.33;2.20;;;;;;;-5.39;100.00;99319.91;4245968;28;20431;-67
2024/01/17 04:28:12;;;;;;;19.33;4.13;;;;;;;-5.35;100.00;99321.47;4243205;28;20658;-64
2024/01/17 04:30:38;;;;;;;0.70;0.70;;;;;;;-5.41;100.00;99327.03;4248204;28;21133;-66
2024/01/17 04:33:08;;;;;;;6.30;4.03;;;;;;;-5.29;100.00;99328.22;4252701;28;20237;-64
2024/01/17 04:35:35;;;;;;;16.53;3.87;;;;;;;-5.34;100.00;99323.16;4245786;28;21003;-66
2024/01/17 04:38:03;;;;;;;12.30;3.43;;;;;;;-5.35;100.00;99329.38;4247622;28;20271;-63
2024/01/17 04:40:29;;;;;;;0.20;0.20;;;;;;;-5.39;100.00;99329.59;4246699;28;20241;-65
2024/01/17 04:42:56;;;;;;;2.77;2.27;;;;;;;-5.32;100.00;99328.34;4231260;28;21480;-66
2024/01/17 04:45:23;;;;;;;0.93;0.87;;;;;;;-5.14;100.00;99324.00;4247541;28;21121;-65
2024/01/17 04:47:49;;;;;;;7.93;3.23;;;;;;;-5.14;100.00;99322.19;4246090;28;20331;-69
2024/01/17 04:50:16;;;;;;;1.60;0.50;;;;;;;-5.25;100.00;99319.25;4249753;28;20412;-66
2024/01/17 04:52:42;;;;;;;0.43;0.43;;;;;;;-5.14;100.00;99318.72;4246909;28;20237;-65
2024/01/17 04:55:13;;;;;;;38.33;10.97;;;;;;;-5.22;99.95;99316.44;4250829;28;20339;-64
2024/01/17 04:57:40;;;;;;;14.37;6.03;;;;;;;-5.12;99.65;99324.75;4259069;28;20589;-66
2024/01/17 05:00:08;;;;;;;24.90;9.43;;;;;;;-5.14;100.00;99329.28;4243140;28;20241;-65
2024/01/17 05:02:36;;;;;;;22.70;9.10;;;;;;;-5.15;99.03;99322.28;4247968;28;20567;-65
2024/01/17 05:05:03;;;;;;;18.43;6.50;;;;;;;-5.17;99.47;99324.97;4253293;28;21153;-67
2024/01/17 05:07:30;;;;;;;26.53;8.60;;;;;;;-5.21;99.36;99327.88;4247115;28;20756;-65
2024/01/17 05:09:57;;;;;;;43.17;10.87;;;;;;;-5.26;99.44;99320.19;4243188;28;20246;-67
2024/01/17 05:12:23;;;;;;;49.33;11.83;;;;;;;-5.25;99.81;99317.47;4254319;28;20924;-65
2024/01/17 05:14:50;;;;;;;45.10;12.10;;;;;;;-5.18;99.32;99314.50;4242973;28;20233;-65
2024/01/17 05:17:16;;;;;;;46.87;12.40;;;;;;;-5.12;99.52;99324.75;4241181;28;21958;-65
2024/01/17 05:19:43;;;;;;;39.57;9.70;;;;;;;-5.02;98.87;99322.53;4246980;28;20232;-68
2024/01/17 05:22:14;;;;;;;44.97;12.63;;;;;;;-5.26;99.70;99318.38;4245207;28;25635;-64
2024/01/17 05:24:41;;;;;;;33.33;10.97;;;;;;;-5.17;99.47;99322.34;4242760;28;20233;-66
2024/01/17 05:27:07;;;;;;;43.83;12.53;;;;;;;-5.19;99.09;99310.16;4231716;28;20435;-66
2024/01/17 05:29:37;;;;;;;34.70;10.47;;;;;;;-5.16;99.28;99310.03;4245351;28;20249;-68
2024/01/17 05:32:05;;;;;;;37.53;12.57;;;;;;;-5.05;99.25;99312.13;4242489;28;20247;-65
2024/01/17 05:34:32;;;;;;;39.07;10.93;;;;;;;-4.91;98.33;99316.72;4248175;28;20228;-65
2024/01/17 05:36:58;;;;;;;39.10;11.20;;;;;;;-4.90;97.81;99321.03;4242142;28;23521;-66
2024/01/17 05:39:25;;;;;;;46.30;9.83;;;;;;;-4.93;97.43;99322.94;4245063;28;20225;-68
2024/01/17 05:41:51;;;;;;;39.00;10.60;;;;;;;-5.04;98.02;99319.97;4228723;28;20234;-66
2024/01/17 05:44:18;;;;;;;40.80;11.47;;;;;;;-4.99;97.87;99312.69;4248151;28;22135;-69
2024/01/17 05:46:44;;;;;;;32.77;11.13;;;;;;;-4.99;97.56;99314.44;4241267;28;20628;-66
2024/01/17 05:49:11;;;;;;;34.93;9.47;;;;;;;-4.94;97.77;99318.56;4245960;28;21446;-66
2024/01/17 05:51:38;;;;;;;33.90;8.23;;;;;;;-4.92;96.93;99307.94;4248708;28;20236;-66
2024/01/17 05:54:05;;;;;;;38.63;11.10;;;;;;;-5.01;97.24;99316.31;4247971;28;20248;-65
2024/01/17 05:56:32;;;;;;;36.30;11.33;;;;;;;-5.15;97.84;99311.72;4250398;28;20235;-65
2024/01/17 05:58:59;;;;;;;40.03;9.43;;;;;;;-5.11;97.90;99303.59;4250103;28;22315;-67
2024/01/17 06:01:25;;;;;;;28.40;10.30;;;;;;;-5.11;97.65;99303.59;4247011;28;20226;-67
2024/01/17 06:03:52;;;;;;;49.33;10.43;;;;;;;-5.09;97.15;99306.97;4216744;28;20367;-66
2024/01/17 06:06:18;;;;;;;37.80;11.47;;;;;;;-5.18;97.53;99309.22;4235705;28;20404;-65
2024/01/17 06:08:45;;;;;;;36.80;11.13;;;;;;;-5.09;96.98;99317.53;4249605;28;20567;-67
2024/01/17 06:11:12;;;;;;;37.80;11.07;;;;;;;-5.17;97.09;99316.22;4245674;28;20234;-67
2024/01/17 06:13:38;;;;;;;39.30;12.13;;;;;;;-5.26;97.60;99315.75;4246965;28;20371;-69
2024/01/17 06:16:05;;;;;;;35.03;11.50;;;;;;;-5.31;97.95;99322.16;4247280;28;20231;-64
2024/01/17 06:18:31;;;;;;;44.40;12.83;;;;;;;-5.33;97.27;99324.03;4245052;28;20225;-66
2024/01/17 06:20:58;;;;;;;47.50;13.33;;;;;;;-5.38;97.26;99312.84;4247271;28;21742;-65
2024/01/17 06:23:24;;;;;;;40.00;13.40;;;;;;;-5.54;98.09;99329.41;4250849;28;20250;-64
2024/01/17 06:25:51;;;;;;;44.07;12.33;;;;;;;-5.65;98.67;99318.50;4249062;28;20234;-69
2024/01/17 06:28:18;;;;;;;41.90;11.93;;;;;;;-5.61;98.89;99330.63;4244175;28;20243;-65
2024/01/17 06:30:45;;;;;;;47.97;14.10;;;;;;;-5.71;99.03;99324.94;4264241;28;20241;-68
2024/01/17 06:33:12;;;;;;;36.60;10.67;;;;;;;-5.77;98.88;99318.16;4253834;28;20245;-68
2024/01/17 06:35:38;;;;;;;39.30;13.00;;;;;;;-5.81;99.27;99324.50;4251702;28;20229;-66
2024/01/17 06:38:05;;;;;;;36.37;11.30;;;;;;;-5.73;98.73;99316.22;4254382;28;20299;-67
2024/01/17 06:40:32;;;;;;;36.67;10.23;;;;;;;-5.85;98.50;99311.53;4254412;28;20302;-66
2024/01/17 06:42:59;;;;;;;5.13;1.77;;;;;;;-5.95;98.25;99306.69;4250574;28;21191;-65
2024/01/17 06:45:25;;;;;;;47.63;12.63;;;;;;;-6.11;99.73;99313.59;4243855;28;21190;-66
2024/01/17 06:47:52;;;;;;;56.77;13.53;;;;;;;-6.15;100.00;99305.00;4250109;28;20225;-66
2024/01/17 06:50:19;;;;;;;38.83;12.07;;;;;;;-6.11;100.00;99311.84;4251903;28;20244;-67
2024/01/17 06:52:45;;;;;;;46.50;13.30;;;;;;;-6.27;100.00;99300.28;4251998;28;20232;-65
2024/01/17 06:55:12;;;;;;;32.10;11.67;;;;;;;-6.24;100.00;99306.28;4251746;28;20945;-65
2024/01/17 06:57:42;;;;;;;32.33;9.67;;;;;;;-6.05;100.00;99302.81;4245597;28;20370;-67
2024/01/17 07:00:09;;;;;;;41.17;11.10;;;;;;;-6.17;100.00;99285.78;4240271;28;21620;-67
2024/01/17 07:02:36;;;;;;;51.17;13.53;;;;;;;-6.17;100.00;99284.91;4244170;28;20238;-66
2024/01/17 07:05:03;;;;;;;27.23;7.83;;;;;;;-6.19;100.00;99285.00;4244479;28;22859;-68
2024/01/17 07:07:30;;;;;;;42.53;11.77;;;;;;;-6.14;100.00;99283.00;4248931;28;20713;-68
2024/01/17 07:09:56;;;;;;;7.90;3.03;;;;;;;-6.10;100.00;99276.69;4244361;28;20457;-69
2024/01/17 07:12:23;;;;;;;48.23;14.17;;;;;;;-6.05;99.69;99273.84;4246902;28;20391;-69
2024/01/17 07:14:54;;;;;;;56.27;14.37;;;;;;;-6.11;99.68;99267.06;4240691;28;21358;-70
2024/01/17 07:17:20;;;;;;;46.83;13.63;;;;;;;-6.10;99.77;99262.63;4225945;28;20587;-65
2024/01/17 07:19:47;;;;;;;31.10;6.80;;;;;;;-6.03;99.93;99266.69;4250607;28;20222;-67
2024/01/17 07:22:13;;;;;;;35.47;11.43;;;;;;;-5.95;99.12;99258.41;4242468;28;20240;-69
2024/01/17 07:24:40;;;;;;;30.73;10.97;;;;;;;-6.02;99.45;99262.28;4241042;28;20442;-68
2024/01/17 07:27:07;;;;;;;38.37;12.00;;;;;;;-6.06;100.00;99261.59;4256035;28;20236;-70
2024/01/17 07:29:35;;;;;;;38.50;10.23;;;;;;;-6.05;100.00;99243.06;4254921;28;20245;-70
2024/01/17 07:32:02;;;;;;;44.90;12.20;;;;;;;-5.99;99.82;99241.94;4239378;28;22873;-69
2024/01/17 07:34:29;;;;;;;39.07;13.50;;;;;;;-6.06;99.83;99240.50;4251465;28;20291;-68
2024/01/17 07:36:56;;;;;;;40.67;13.87;;;;;;;-5.92;99.31;99234.53;4243463;28;20241;-70
2024/01/17 07:39:22;;;;;;;48.17;14.90;;;;;;;-5.97;99.36;99233.91;4240187;28;20249;-70
2024/01/17 07:41:50;;;;;;;47.37;14.00;;;;;;;-5.71;98.75;99242.38;4240550;28;21499;-71
2024/01/17 07:44:16;;;;;;;53.83;14.83;;;;;;;-5.82;98.80;99230.53;4254668;28;21733;-68
2024/01/17 07:46:43;;;;;;;51.33;13.90;;;;;;;-5.85;99.06;99214.88;4248579;28;20624;-68
2024/01/17 07:49:10;;;;;;;71.20;17.03;;;;;;;-5.79;99.02;99227.78;4242796;28;20300;-66
2024/01/17 07:51:37;;;;;;;75.13;16.83;;;;;;;-5.87;99.28;99211.47;4247147;28;20237;-65
2024/01/17 07:54:04;;;;;;;61.80;16.90;;;;;;;-5.78;99.54;99216.28;4253638;28;21722;-68
2024/01/17 07:56:31;;;;;;;61.87;17.27;;;;;;;-5.67;99.47;99210.50;4229365;28;20689;-70
2024/01/17 07:58:57;;;;;;;55.43;16.67;;;;;;;-5.69;99.06;99212.34;4254445;28;22000;-69
2024/01/17 08:01:24;;;;;;;46.00;14.50;;;;;;;-5.57;98.31;99214.38;4268170;28;23741;-66
2024/01/17 08:03:51;;;;;;;53.50;15.40;;;;;;;-5.60;98.21;99198.72;4246471;28;21100;-68
2024/01/17 08:06:19;;;;;;;46.43;14.97;;;;;;;-5.56;98.00;99202.06;4247921;28;20230;-65
2024/01/17 08:08:46;;;;;;;53.10;13.57;;;;;;;-5.49;97.82;99202.59;4240116;28;20399;-67
2024/01/17 08:11:12;;;;;;;36.33;11.47;;;;;;;-5.46;97.78;99198.03;4247190;28;22586;-68
2024/01/17 08:13:39;;;;;;;41.83;13.63;;;;;;;-5.49;97.74;99179.75;4278536;28;20348;-68
2024/01/17 08:16:08;;;;;;;7.47;2.63;;;;;;;-5.55;97.97;99180.03;4255969;28;20230;-69
2024/01/17 08:18:36;;;;;;;0.10;0.10;;;;;;;-5.41;98.28;99179.34;4252366;28;20305;-69
2024/01/17 08:21:03;;;;;;;9.33;2.90;;;;;;;-5.32;97.68;99176.25;4250835;28;20594;-67
2024/01/17 08:23:30;;;;;;;4.23;3.23;;;;;;;-5.31;97.17;99188.50;4251267;28;20244;-66
2024/01/17 08:25:57;;;;;;;25.53;8.57;;;;;;;-5.26;96.53;99197.03;4227446;28;20231;-66
2024/01/17 08:28:23;;;;;;;3.50;2.47;;;;;;;-5.34;96.99;99190.44;4253851;28;20509;-67
2024/01/17 08:30:50;;;;;;;5.40;1.40;;;;;;;-5.07;97.14;99188.19;4270245;28;22726;-68
2024/01/17 08:33:17;;;;;;;20.87;4.37;;;;;;;-5.07;95.63;99190.81;4250153;28;20314;-67
2024/01/17 08:35:44;;;;;;;12.00;3.43;;;;;;;-4.88;94.47;99181.94;4257110;28;22459;-66
2024/01/17 08:38:11;;;;;;;22.13;5.10;;;;;;;-4.55;93.21;99194.28;4268335;28;22763;-68
2024/01/17 08:40:38;;;;;;;7.10;3.73;;;;;;;-4.24;91.16;99203.19;4272009;28;20231;-68
2024/01/17 08:43:05;;;;;;;19.63;8.30;;;;;;;-2.86;84.91;99190.88;4253472;28;20431;-67
2024/01/17 08:45:32;;;;;;;38.63;13.07;;;;;;;-1.83;78.71;99185.38;4294737;28;20294;-65
2024/01/17 08:47:59;;;;;;;47.90;14.20;;;;;;;-0.55;71.89;99178.59;4333406;28;25291;-65
2024/01/17 08:50:25;;;;;;;57.10;15.47;;;;;;;1.66;65.96;99180.00;4326948;28;20993;-65
2024/01/17 08:52:52;;;;;;;43.43;13.67;;;;;;;1.93;62.15;99176.13;4328577;28;20235;-66
2024/01/17 08:55:19;;;;;;;44.67;14.60;;;;;;;3.78;55.64;99168.63;4264898;28;20225;-66
2024/01/17 08:57:45;;;;;;;40.07;14.40;;;;;;;5.29;50.74;99171.16;4266330;28;20222;-68
2024/01/17 09:00:14;;;;;;;44.97;14.23;;;;;;;3.90;51.73;99168.50;4267394;28;20226;-68
2024/01/17 09:02:41;;;;;;;49.37;15.87;;;;;;;5.54;48.93;99157.06;4267576;28;20244;-70
2024/01/17 09:05:07;;;;;;;46.53;15.10;;;;;;;5.75;48.16;99155.16;4279596;28;22363;-73
2024/01/17 09:07:36;;;;;;;41.43;16.20;;;;;;;5.39;46.96;99151.34;4271561;28;20301;-71
2024/01/17 09:10:03;;;;;;;10.53;3.67;;;;;;;4.11;50.58;99147.03;4271914;28;20311;-70
2024/01/17 09:12:30;;;;;;;2.87;2.00;;;;;;;5.65;46.88;99148.00;4301485;28;20231;-72
2024/01/17 09:14:56;;;;;;;19.43;8.13;;;;;;;5.37;46.65;99139.03;4301870;28;20231;-72
2024/01/17 09:17:23;;;;;;;10.40;4.43;;;;;;;4.39;49.55;99140.03;4269976;28;20567;-69
2024/01/17 09:19:50;;;;;;;11.07;4.27;;;;;;;5.49;46.34;99135.22;4292965;28;20398;-71
2024/01/17 09:22:17;;;;;;;40.63;11.63;;;;;;;5.16;48.54;99128.53;4279046;28;25620;-71
2024/01/17 09:24:44;;;;;;;25.23;9.33;;;;;;;6.24;46.38;99120.84;4286071;28;20238;-72
2024/01/17 09:27:11;;;;;;;31.20;11.03;;;;;;;6.14;44.93;99118.22;4289822;28;20236;-70
2024/01/17 09:29:38;;;;;;;41.37;14.90;;;;;;;5.01;47.56;99112.03;4256336;28;20241;-71
2024/01/17 09:32:05;;;;;;;36.07;13.80;;;;;;;5.01;47.39;99107.53;4245348;28;25523;-68
2024/01/17 09:34:36;;;;;;;39.73;14.57;;;;;;;4.61;48.54;99095.16;4241025;28;20256;-70
2024/01/17 09:37:05;;;;;;;51.87;15.83;;;;;;;4.60;48.51;99091.66;4260430;28;20427;-71
2024/01/17 09:39:32;;;;;;;41.83;14.13;;;;;;;3.03;52.30;99079.75;4279382;28;20254;-68
2024/01/17 09:42:02;;;;;;;1.53;0.47;;;;;;;3.93;52.30;99066.53;4271457;28;20234;-70
2024/01/17 09:44:29;;;;;;;0.93;0.63;;;;;;;5.55;46.88;99058.63;4278130;28;20226;-66
2024/01/17 09:47:00;;;;;;;4.93;1.43;;;;;;;5.62;46.95;99061.53;4259411;28;20513;-67
2024/01/17 09:49:27;;;;;;;4.57;2.60;;;;;;;5.38;46.10;99045.00;4311385;28;20421;-65
2024/01/17 09:51:55;;;;;;;3.73;3.43;;;;;;;5.47;47.59;99048.63;4287846;28;21262;-68
2024/01/17 09:54:25;;;;;;;1.33;0.60;;;;;;;4.33;49.81;99037.91;4253385;28;20323;-65
2024/01/17 09:56:55;;;;;;;2.37;0.97;;;;;;;2.89;54.10;99026.63;4249261;28;20298;-65
2024/01/17 09:59:28;;;;;;;2.47;0.37;;;;;;;2.01;56.88;99029.53;4258666;28;20922;-65
2024/01/17 10:01:58;;;;;;;15.50;3.97;;;;;;;1.49;59.16;99016.00;4266528;28;20311;-66
2024/01/17 10:04:26;;;;;;;18.13;6.70;;;;;;;1.04;60.46;99012.44;4284158;28;20409;-68
2024/01/17 10:06:55;;;;;;;6.37;2.80;;;;;;;0.66;63.74;99002.97;4340545;28;20569;-65
2024/01/17 10:09:26;;;;;;;37.50;12.47;;;;;;;0.48;63.75;98999.94;4249464;28;20377;-65
2024/01/17 10:11:53;;;;;;;30.83;9.50;;;;;;;-0.50;67.25;98993.06;4263472;28;20245;-67
2024/01/17 10:14:23;;;;;;;42.27;13.63;;;;;;;-0.43;67.65;98988.13;4275344;28;20234;-67
2024/01/17 10:16:51;;;;;;;38.13;13.43;;;;;;;-0.70;68.82;98984.72;4249955;28;20233;-62
2024/01/17 10:19:18;;;;;;;32.40;9.93;;;;;;;-0.26;68.00;98976.22;4252943;28;21180;-68
2024/01/17 10:21:45;;;;;;;13.23;3.67;;;;;;;-0.35;69.64;98969.78;4276383;28;20320;-62
2024/01/17 10:24:11;;;;;;;4.83;1.40;;;;;;;-0.10;69.49;98960.81;4264260;28;20250;-68
2024/01/17 10:26:42;;;;;;;32.33;11.77;;;;;;;-0.38;68.77;98954.91;4252475;28;20235;-67
2024/01/17 10:29:10;;;;;;;37.70;12.27;;;;;;;-0.47;70.55;98949.44;4261900;28;20226;-67
2024/01/17 10:31:40;;;;;;;37.13;12.23;;;;;;;-0.03;68.48;98937.25;4232016;28;20292;-69
2024/01/17 10:34:07;;;;;;;36.77;12.30;;;;;;;0.23;66.99;98929.94;4240158;28;20235;-68
2024/01/17 10:36:39;;;;;;;38.93;11.53;;;;;;;0.50;66.21;98922.59;4253017;28;20238;-68
2024/01/17 10:39:05;;;;;;;36.33;10.60;;;;;;;0.81;65.63;98914.81;4240043;28;20758;-69
2024/01/17 10:41:32;;;;;;;46.00;11.97;;;;;;;0.10;67.39;98913.25;4250749;28;20308;-67
2024/01/17 10:44:05;;;;;;;34.93;12.80;;;;;;;-0.28;68.53;98911.69;4245530;28;20230;-67
2024/01/17 10:46:33;;;;;;;44.33;13.53;;;;;;;-1.11;71.58;98900.91;4276782;28;21715;-68
2024/01/17 10:49:00;;;;;;;44.07;13.27;;;;;;;-1.23;72.70;98897.34;4256517;28;20319;-67
2024/01/17 10:51:33;;;;;;;45.80;15.67;;;;;;;-1.56;74.29;98889.97;4261156;28;20305;-67
2024/01/17 10:54:00;;;;;;;55.00;18.20;;;;;;;-1.62;74.70;98885.94;4252864;28;20230;-68
2024/01/17 10:56:29;;;;;;;45.63;15.23;;;;;;;-1.78;75.79;98887.00;4281368;28;20472;-68
2024/01/17 10:58:59;;;;;;;39.57;13.57;;;;;;;-1.60;75.64;98884.03;4252981;28;20275;-69
2024/01/17 11:01:33;;;;;;;48.40;15.97;;;;;;;-1.71;75.66;98868.00;4247424;28;20870;-68
2024/01/17 11:04:11;;;;;;;50.40;14.30;;;;;;;-1.87;76.57;98861.13;4268000;28;20246;-69
2024/01/17 11:06:39;;;;;;;41.43;16.13;;;;;;;-1.98;76.52;98855.75;4257190;28;22237;-71
2024/01/17 11:09:07;;;;;;;34.77;13.80;;;;;;;-1.89;76.52;98854.25;4259681;28;20226;-71
2024/01/17 11:11:35;;;;;;;52.80;16.80;;;;;;;-2.12;77.75;98849.59;4267821;28;20238;-73
2024/01/17 11:14:03;;;;;;;47.33;15.57;;;;;;;-2.28;78.52;98851.59;4271754;28;21489;-68
2024/01/17 11:16:32;;;;;;;44.83;16.07;;;;;;;-2.30;79.09;98842.91;4248693;28;20938;-68
2024/01/17 11:19:00;;;;;;;54.60;16.73;;;;;;;-2.29;78.73;98837.47;4244527;28;20247;-69
2024/01/17 11:21:29;;;;;;;42.70;15.47;;;;;;;-2.23;78.81;98833.56;4274779;28;20285;-71